Hauptseite
METAR-TAF:

METAR-TAF

Flughäfen :

Flughafen Sanikiluaq

Sanikiluaq, Nunavut, Kanada

Breite: 56-32N, Länge: 079-15W, Höhe: 32 m

Beobachtung

Neuester Wetterbericht von vor 10 Stunden und 42 Minuten, um 23:00 UTC
Wind 5 kt aus West/Nordwest
Temperatur -27°C
Luftfeuchtigkeit 75%
Luftdruck 1029 hPa
Sichtweite: 24.1 km
Himmel klar

METAR: CYSK 232300Z 29005KT 15SM SKC M27/M30 A3040 RMK SN CVR/NIL LAST OBS/NEXT 241300UTC SLP300

Zeit: 04:42 (09:42 UTC)


TAF: fehlend

Wetterbeobachtungen und Prognosen von mehr als 4000 Flughäfen (METAR und TAF Bericht).

Die verfügbaren Stationen werden durch gelbe und rote Markierungen auf der Karte dargestellt.

Führen Sie die Maus auf sie, um den Namen der Station zu sehen.

Darauf klicken, um die Beobachtung von Wetterbeobachtungen und Prognosen zu sehen.

Um die Karte zu ändern : klicken Sie auf den grünen Tasten mit einem schwarzen Kreuz Zum Vergrößern, auf den grünen Button mit einem Gedankenstrich zu verkleinern, oder auf die grünen Pfeile für benachbarte Karten.


METAR-TAF: